Campbellsburg, Indiana
Current Conditions -  °F | °C
As of 3:18 PM on Sunday 25 Jan 2015 (Local Time) from KBMG Reporting Station
Overcast Overcast  
Wind Chill: 39°   Ceiling: 2500
Heat Index: 39°   Visibility: 10mi
Dew Point: 37°   Wind: 3mph
Humidity: 93%   Direction: 140°SE
Pressure: 29.6"   Gusts: NA
Location:  38.65°N, 86.26°W
Report Text: KBMG 252018Z 14003KT 10SM FEW007 SCT012 OVC025 04/03 A2960 RMK AO2 T00390028 $
Loading
Personal Weather Stations






























Interactive Weather Map New forecast layout! Learn more

10-Day Weather Forecast

Advertisements
Track Severe Weather on mobile